Time;durP1;ratioP1;P1;durP2;ratioP2;P2;SDS_P1;SDS_P2;PMS_P1;PMS_P2;Temp;Humidity;BMP_temperature;BMP_pressure;BME280_temperature;BME280_humidity;BME280_pressure;Samples;Min_cycle;Max_cycle;Signal;HPM_P1;HPM_P2
2022/03/05 00:03:37;;;;;;;13.90;8.35;;;;;;;-2.06;100.00;102295.75;10175396;29;20036;-88
2022/03/05 00:08:38;;;;;;;15.68;9.02;;;;;;;-2.57;100.00;102221.16;10159908;29;20124;-88
2022/03/05 00:13:38;;;;;;;16.25;9.63;;;;;;;-2.59;100.00;102212.34;10188550;29;20532;-88
2022/03/05 00:18:39;;;;;;;15.35;8.38;;;;;;;-2.73;100.00;102191.97;10167013;29;20043;-88
2022/03/05 00:23:39;;;;;;;15.48;8.93;;;;;;;-1.99;100.00;102329.28;10166479;29;20027;-88
2022/03/05 00:28:40;;;;;;;17.33;9.97;;;;;;;-2.91;100.00;102172.91;10166976;29;20035;-86
2022/03/05 00:33:40;;;;;;;18.05;9.13;;;;;;;-2.66;100.00;102218.28;10166828;29;20035;-87
2022/03/05 00:38:41;;;;;;;18.23;10.13;;;;;;;-3.01;100.00;102164.75;10166123;29;20098;-88
2022/03/05 00:43:41;;;;;;;18.40;10.33;;;;;;;-2.94;100.00;102189.31;10180497;29;20168;-86
2022/03/05 00:48:42;;;;;;;22.02;11.00;;;;;;;-2.69;100.00;102256.28;10181254;29;20039;-89
2022/03/05 00:53:42;;;;;;;18.65;10.90;;;;;;;-3.26;100.00;102150.72;10165517;29;20035;-88
2022/03/05 00:58:43;;;;;;;18.40;10.45;;;;;;;-3.05;100.00;102199.19;10197635;29;20032;-88
2022/03/05 01:03:44;;;;;;;19.05;9.80;;;;;;;-3.10;100.00;102181.69;10165977;29;20024;-88
2022/03/05 01:08:45;;;;;;;14.60;8.02;;;;;;;-3.23;100.00;102179.22;10165746;29;20059;-89
2022/03/05 01:13:45;;;;;;;12.95;7.88;;;;;;;-2.55;100.00;102270.41;10197237;29;20115;-88
2022/03/05 01:18:46;;;;;;;14.73;7.95;;;;;;;-2.98;100.00;102217.50;10204922;29;20091;-88
2022/03/05 01:23:46;;;;;;;21.02;8.30;;;;;;;-2.99;100.00;102213.97;10176061;29;20040;-89
2022/03/05 01:28:47;;;;;;;16.20;7.82;;;;;;;-3.77;100.00;102112.94;10183216;29;20095;-89
2022/03/05 01:33:47;;;;;;;13.93;7.60;;;;;;;-3.27;100.00;102202.84;10165569;29;20031;-89
2022/03/05 01:38:48;;;;;;;13.43;7.72;;;;;;;-3.40;100.00;102191.44;10180520;29;20527;-89
2022/03/05 01:43:50;;;;;;;14.88;8.10;;;;;;;-3.10;100.00;102220.28;10181095;29;20079;-89
2022/03/05 01:48:50;;;;;;;16.30;8.57;;;;;;;-3.00;100.00;102251.81;10165054;29;20102;-89
2022/03/05 01:53:51;;;;;;;18.23;8.75;;;;;;;-2.97;100.00;102254.28;10181103;29;20074;-89
2022/03/05 01:58:53;;;;;;;14.82;8.75;;;;;;;-3.47;100.00;102174.97;10165846;29;20028;-89
2022/03/05 02:03:54;;;;;;;15.07;8.88;;;;;;;-3.20;100.00;102229.28;10166066;29;20023;-89
2022/03/05 02:08:56;;;;;;;17.15;9.35;;;;;;;-3.77;100.00;102162.25;10188245;29;20028;-89
2022/03/05 02:13:56;;;;;;;16.43;8.57;;;;;;;-3.31;100.00;102231.06;10173374;29;20067;-89
2022/03/05 02:18:57;;;;;;;14.15;7.95;;;;;;;-3.73;100.00;102136.78;10164271;29;20500;-90
2022/03/05 02:23:57;;;;;;;14.35;7.35;;;;;;;-3.20;100.00;102218.50;10164930;29;20028;-90
2022/03/05 02:28:58;;;;;;;14.57;8.53;;;;;;;-3.61;100.00;102137.59;10149136;29;20579;-89
2022/03/05 02:34:00;;;;;;;14.38;8.13;;;;;;;-3.93;100.00;102086.47;10175914;29;20122;-86
2022/03/05 02:39:00;;;;;;;17.70;8.30;;;;;;;-3.75;100.00;102132.50;10175482;29;20058;-87
2022/03/05 02:44:01;;;;;;;15.50;7.23;;;;;;;-3.54;100.00;102171.06;10187152;29;20495;-90
2022/03/05 02:49:03;;;;;;;17.27;7.63;;;;;;;-3.62;100.00;102146.63;10177733;29;20039;-90
2022/03/05 02:54:03;;;;;;;15.60;7.80;;;;;;;-3.78;100.00;102119.31;10171465;29;20399;-90
2022/03/05 02:59:04;;;;;;;15.85;7.88;;;;;;;-4.06;100.00;102097.44;10186188;29;20027;-87
2022/03/05 03:04:06;;;;;;;16.23;7.72;;;;;;;-3.38;100.00;102185.94;10200646;29;20111;-87
2022/03/05 03:09:07;;;;;;;18.70;8.23;;;;;;;-3.32;100.00;102199.72;10170157;29;20036;-87
2022/03/05 03:14:08;;;;;;;15.82;8.18;;;;;;;-3.65;100.00;102155.81;10161374;29;20425;-87
2022/03/05 03:19:08;;;;;;;13.80;6.97;;;;;;;-3.43;100.00;102188.13;10147008;29;20032;-90
2022/03/05 03:24:09;;;;;;;12.17;6.73;;;;;;;-3.68;100.00;102147.16;10147635;29;20038;-90
2022/03/05 03:29:09;;;;;;;11.73;6.40;;;;;;;-3.75;100.00;102124.44;10200499;29;20395;-90
2022/03/05 03:34:10;;;;;;;15.80;6.83;;;;;;;-3.55;100.00;102166.69;10184747;29;20115;-87
2022/03/05 03:39:10;;;;;;;12.43;6.70;;;;;;;-3.64;100.00;102143.22;10168376;29;20463;-87
2022/03/05 03:44:11;;;;;;;11.17;6.50;;;;;;;-4.39;100.00;102023.97;10169675;29;20054;-91
2022/03/05 03:49:12;;;;;;;12.10;6.73;;;;;;;-3.50;100.00;102169.81;10170037;29;20032;-90
2022/03/05 03:54:15;;;;;;;12.90;6.10;;;;;;;-3.74;100.00;102128.81;10169094;29;20460;-87
2022/03/05 03:59:15;;;;;;;13.88;6.13;;;;;;;-3.85;100.00;102144.03;10183340;29;20488;-87
2022/03/05 04:04:16;;;;;;;12.82;6.35;;;;;;;-4.12;100.00;102093.41;10167120;29;20118;-87
2022/03/05 04:09:16;;;;;;;18.10;6.20;;;;;;;-3.39;100.00;102230.84;10184952;29;20148;-90
2022/03/05 04:14:17;;;;;;;13.60;6.23;;;;;;;-3.84;100.00;102182.59;10169128;29;20026;-90
2022/03/05 04:19:18;;;;;;;14.95;6.47;;;;;;;-4.25;100.00;102116.94;10169252;29;20031;-90
2022/03/05 04:24:18;;;;;;;12.97;6.17;;;;;;;-3.82;100.00;102179.75;10169570;29;20027;-91
2022/03/05 04:29:19;;;;;;;13.52;6.03;;;;;;;-3.95;100.00;102158.41;10171028;29;20126;-90
2022/03/05 04:34:22;;;;;;;12.25;5.93;;;;;;;-3.78;100.00;102191.97;10166721;29;20028;-90
2022/03/05 04:39:22;;;;;;;18.08;6.93;;;;;;;-4.11;100.00;102131.94;10192717;29;20039;-91
2022/03/05 04:44:25;;;;;;;11.88;6.20;;;;;;;-3.79;100.00;102211.78;10138523;29;20063;-90
2022/03/05 04:49:26;;;;;;;13.83;6.47;;;;;;;-4.03;100.00;102159.06;10143869;29;20059;-91
2022/03/05 04:54:29;;;;;;;14.53;6.57;;;;;;;-4.30;100.00;102135.25;10132368;29;20052;-89
2022/03/05 04:59:30;;;;;;;11.13;6.13;;;;;;;-4.28;100.00;102112.66;10145789;29;20064;-90
2022/03/05 05:04:30;;;;;;;11.85;6.57;;;;;;;-4.04;100.00;102157.31;10144730;29;20091;-91
2022/03/05 05:09:31;;;;;;;15.30;6.00;;;;;;;-4.51;100.00;102084.97;10143621;29;20032;-90
2022/03/05 05:14:32;;;;;;;12.43;6.23;;;;;;;-3.97;100.00;102177.38;10144246;29;20036;-91
2022/03/05 05:19:32;;;;;;;12.50;6.57;;;;;;;-3.73;100.00;102212.13;10128716;29;20293;-90
2022/03/05 05:24:34;;;;;;;12.90;7.03;;;;;;;-3.86;100.00;102158.50;10127569;29;20087;-91
2022/03/05 05:29:34;;;;;;;9.17;5.93;;;;;;;-4.05;100.00;102147.56;10144083;29;20050;-90
2022/03/05 05:34:35;;;;;;;14.75;6.60;;;;;;;-4.73;100.00;102042.91;10143038;29;20027;-91
2022/03/05 05:39:36;;;;;;;10.90;6.67;;;;;;;-3.92;100.00;102196.66;10144466;29;20028;-91
2022/03/05 05:44:37;;;;;;;13.77;7.80;;;;;;;-4.00;100.00;102187.53;10181031;29;20106;-91
2022/03/05 05:49:40;;;;;;;16.43;6.80;;;;;;;-3.69;100.00;102239.66;10165176;29;20384;-87
2022/03/05 05:54:40;;;;;;;15.17;7.13;;;;;;;-4.16;100.00;102150.28;10196144;29;20110;-87
2022/03/05 05:59:41;;;;;;;12.25;6.53;;;;;;;-4.04;100.00;102175.31;10171595;29;20122;-87
2022/03/05 06:04:41;;;;;;;14.40;7.40;;;;;;;-3.45;100.00;102291.47;10176181;29;20673;-87
2022/03/05 06:09:42;;;;;;;19.90;8.18;;;;;;;-4.24;100.00;102185.00;10163031;29;20137;-86
2022/03/05 06:14:43;;;;;;;15.47;8.13;;;;;;;-3.44;100.00;102292.31;10164103;29;20096;-87
2022/03/05 06:19:44;;;;;;;14.90;8.93;;;;;;;-3.63;100.00;102271.44;10179808;29;20086;-87
2022/03/05 06:24:44;;;;;;;14.52;8.23;;;;;;;-4.29;100.00;102151.28;10195679;29;20027;-87
2022/03/05 06:29:45;;;;;;;15.13;8.23;;;;;;;-3.77;100.00;102234.06;10194934;29;20110;-87
2022/03/05 06:34:45;;;;;;;15.93;8.43;;;;;;;-3.30;100.00;102291.16;10178993;29;20035;-87
2022/03/05 06:39:46;;;;;;;15.10;8.07;;;;;;;-3.82;100.00;102202.16;10177905;29;20464;-87
2022/03/05 06:44:47;;;;;;;17.02;8.63;;;;;;;-3.57;100.00;102216.25;10178986;29;20139;-87
2022/03/05 06:49:47;;;;;;;16.27;8.63;;;;;;;-3.52;100.00;102198.69;10165103;29;20035;-90
2022/03/05 06:54:48;;;;;;;16.67;9.53;;;;;;;-3.29;100.00;102201.28;10172112;29;20098;-90
2022/03/05 06:59:48;;;;;;;16.97;8.73;;;;;;;-3.62;100.00;102153.84;10172068;29;20106;-91
2022/03/05 07:04:49;;;;;;;13.53;8.27;;;;;;;-2.60;100.00;102291.50;10171701;29;20063;-90
2022/03/05 07:09:51;;;;;;;18.73;9.87;;;;;;;-2.64;100.00;102269.38;10188416;29;20102;-90
2022/03/05 07:14:51;;;;;;;14.63;7.45;;;;;;;-2.61;100.00;102214.31;10169990;29;20036;-90
2022/03/05 07:19:54;;;;;;;12.43;7.43;;;;;;;-2.24;100.00;102255.91;10171152;29;20071;-90
2022/03/05 07:24:54;;;;;;;14.90;7.68;;;;;;;-2.19;100.00;102249.25;10187812;29;20039;-92
2022/03/05 07:29:55;;;;;;;13.27;7.32;;;;;;;-2.14;100.00;102255.09;10202129;29;20067;-90
2022/03/05 07:34:56;;;;;;;12.82;6.93;;;;;;;-1.93;100.00;102247.78;10202751;29;20035;-89
2022/03/05 07:39:56;;;;;;;12.45;7.25;;;;;;;-1.35;100.00;102340.69;10171494;29;20023;-91
2022/03/05 07:45:01;;;;;;;12.90;6.70;;;;;;;-2.28;100.00;102195.13;10181379;29;20139;-89
2022/03/05 07:50:01;;;;;;;17.23;7.35;;;;;;;-1.32;100.00;102308.00;10190618;29;20044;-89
2022/03/05 07:55:02;;;;;;;12.38;7.68;;;;;;;-1.90;100.00;102209.72;10178349;29;20020;-89
2022/03/05 08:00:05;;;;;;;12.45;6.55;;;;;;;-2.16;100.00;102138.38;10200735;29;20085;-91
2022/03/05 08:05:06;;;;;;;13.07;6.45;;;;;;;-1.76;100.00;102188.69;10195854;29;20015;-89
2022/03/05 08:10:07;;;;;;;14.68;7.65;;;;;;;-1.81;100.00;102181.03;10165426;29;20527;-88
2022/03/05 08:15:09;;;;;;;12.20;6.85;;;;;;;-0.99;100.00;102262.59;10214098;29;20192;-88
2022/03/05 08:20:10;;;;;;;16.02;7.70;;;;;;;-1.11;100.00;102243.84;10197851;29;20036;-88
2022/03/05 08:25:12;;;;;;;11.57;6.95;;;;;;;-1.21;100.00;102210.56;10182582;29;20054;-89
2022/03/05 08:30:15;;;;;;;14.00;8.13;;;;;;;-0.76;100.00;102245.06;10173913;29;20031;-89
2022/03/05 08:35:16;;;;;;;13.32;7.20;;;;;;;-1.08;100.00;102189.50;10145873;29;20024;-88
2022/03/05 08:40:17;;;;;;;14.45;6.88;;;;;;;-1.25;100.00;102125.41;10183939;29;20023;-91
2022/03/05 08:45:17;;;;;;;19.75;8.27;;;;;;;-0.56;100.00;102217.97;10177224;29;20059;-89
2022/03/05 08:50:18;;;;;;;14.43;7.30;;;;;;;-0.76;100.00;102163.94;10202921;29;20048;-89
2022/03/05 08:55:18;;;;;;;15.13;7.72;;;;;;;0.39;100.00;102293.44;10197562;29;20023;-89
2022/03/05 09:00:19;;;;;;;16.90;8.05;;;;;;;-0.24;100.00;102156.13;10196547;29;20047;-88
2022/03/05 09:05:20;;;;;;;13.95;7.93;;;;;;;0.34;100.00;102235.28;10165034;29;20016;-88
2022/03/05 09:10:20;;;;;;;12.85;7.28;;;;;;;0.40;100.00;102213.84;10181593;29;20023;-88
2022/03/05 09:15:21;;;;;;;15.35;7.85;;;;;;;0.88;100.00;102275.94;10196435;29;20051;-89
2022/03/05 09:20:21;;;;;;;13.38;7.30;;;;;;;0.74;100.00;102196.03;10180277;29;20034;-89
2022/03/05 09:25:22;;;;;;;14.15;6.93;;;;;;;1.61;100.00;102290.06;10158794;29;20412;-89
2022/03/05 09:30:22;;;;;;;13.55;7.32;;;;;;;1.27;100.00;102216.75;10176517;29;20031;-89
2022/03/05 09:35:23;;;;;;;13.48;7.22;;;;;;;1.27;100.00;102178.75;10154053;29;20468;-89
2022/03/05 09:40:24;;;;;;;15.55;9.05;;;;;;;1.36;100.00;102166.09;10180275;29;20063;-87
2022/03/05 09:45:24;;;;;;;14.52;7.93;;;;;;;1.98;100.00;102212.00;10163215;29;20040;-89
2022/03/05 09:50:26;;;;;;;16.35;8.77;;;;;;;2.12;100.00;102189.63;10163424;29;20046;-89
2022/03/05 09:55:30;;;;;;;13.77;6.80;;;;;;;2.33;100.00;102178.28;10174599;29;20040;-88
2022/03/05 10:00:30;;;;;;;13.23;6.65;;;;;;;2.70;100.00;102214.16;10184894;29;20059;-86
2022/03/05 10:05:31;;;;;;;12.50;7.05;;;;;;;2.99;100.00;102208.22;10195362;29;20091;-89
2022/03/05 10:10:39;;;;;;;13.95;7.80;;;;;;;3.35;100.00;102257.66;10153427;29;20064;-89
2022/03/05 10:15:40;;;;;;;15.73;7.00;;;;;;;3.17;100.00;102203.41;10177425;29;20035;-88
2022/03/05 10:20:48;;;;;;;11.73;6.40;;;;;;;3.55;100.00;102235.50;10172106;29;20078;-89
2022/03/05 10:25:49;;;;;;;12.68;7.45;;;;;;;4.19;100.00;102271.69;10222704;29;20027;-88
2022/03/05 10:30:54;;;;;;;12.77;7.28;;;;;;;3.59;100.00;102161.44;10250023;28;20031;-87
2022/03/05 10:35:55;;;;;;;14.32;7.32;;;;;;;4.02;100.00;102200.06;10242107;29;20031;-89
2022/03/05 10:40:56;;;;;;;16.33;8.05;;;;;;;4.79;100.00;102267.41;10208247;29;20047;-87
2022/03/05 10:45:58;;;;;;;14.05;7.85;;;;;;;4.99;100.00;102256.00;10193908;29;20042;-87
2022/03/05 10:51:18;;;;;;;11.07;7.05;;;;;;;4.73;100.00;102163.59;10188031;29;20047;-88
2022/03/05 10:56:26;;;;;;;11.07;6.97;;;;;;;5.59;100.00;102273.34;10211011;29;20020;-87
2022/03/05 11:01:27;;;;;;;12.93;7.47;;;;;;;5.25;98.88;102190.09;10196831;29;20023;-87
2022/03/05 11:06:27;;;;;;;12.98;6.50;;;;;;;5.64;97.87;102219.00;10185620;29;20032;-88
2022/03/05 11:11:28;;;;;;;11.00;6.72;;;;;;;5.95;96.56;102245.31;10173915;29;20091;-88
2022/03/05 11:16:28;;;;;;;12.65;7.53;;;;;;;5.72;95.37;102175.16;10191239;29;20023;-87
2022/03/05 11:21:29;;;;;;;13.20;7.18;;;;;;;6.08;95.08;102193.53;10187776;29;20371;-88
2022/03/05 11:26:30;;;;;;;14.65;8.10;;;;;;;6.29;94.16;102186.41;10189328;29;20030;-88
2022/03/05 11:31:32;;;;;;;11.20;7.65;;;;;;;6.65;90.55;102187.19;10204793;29;20136;-88
2022/03/05 11:36:36;;;;;;;13.82;8.07;;;;;;;6.81;89.42;102171.53;10220495;28;20411;-88
2022/03/05 11:41:50;;;;;;;11.88;7.30;;;;;;;7.10;87.35;102238.13;10207881;29;20054;-88
2022/03/05 11:47:26;;;;;;;11.73;7.55;;;;;;;6.83;88.50;102139.34;10207118;29;20102;-89
2022/03/05 11:52:53;;;;;;;12.70;7.30;;;;;;;7.00;84.56;102135.25;10223582;29;20400;-89
2022/03/05 11:57:53;;;;;;;12.30;7.30;;;;;;;7.87;85.85;102185.06;10215708;29;20094;-89
2022/03/05 12:02:54;;;;;;;15.20;8.65;;;;;;;7.92;82.73;102174.34;10222871;29;21593;-88
2022/03/05 12:07:55;;;;;;;13.27;7.25;;;;;;;7.93;81.13;102128.56;10203116;29;20079;-88
2022/03/05 12:13:03;;;;;;;14.70;7.80;;;;;;;8.53;80.43;102205.59;10188178;29;20034;-89
2022/03/05 12:18:05;;;;;;;13.70;8.90;;;;;;;8.17;78.83;102162.84;10205445;29;20169;-89
2022/03/05 12:23:10;;;;;;;14.55;9.13;;;;;;;8.26;76.95;102090.25;10186252;29;20019;-88
2022/03/05 12:28:19;;;;;;;16.17;9.10;;;;;;;9.40;75.26;102146.81;10216612;29;20390;-88
2022/03/05 12:33:19;;;;;;;17.85;10.38;;;;;;;9.80;72.26;102124.69;10233397;29;20332;-88
2022/03/05 12:38:21;;;;;;;17.60;10.10;;;;;;;10.72;72.23;102173.06;10169041;29;20062;-89
2022/03/05 12:43:22;;;;;;;14.15;8.95;;;;;;;10.43;67.64;102016.53;10188435;29;20059;-89
2022/03/05 12:48:22;;;;;;;16.10;10.90;;;;;;;11.57;65.97;102136.63;10199887;28;20050;-88
2022/03/05 12:53:24;;;;;;;14.65;9.40;;;;;;;11.94;64.87;102131.94;10185657;29;20055;-89
2022/03/05 12:58:32;;;;;;;16.10;10.32;;;;;;;11.97;63.85;102133.41;10200156;29;20095;-89
2022/03/05 13:03:33;;;;;;;13.77;9.48;;;;;;;12.39;63.76;102136.22;10184528;29;20031;-89
2022/03/05 13:08:35;;;;;;;15.18;10.70;;;;;;;12.13;62.66;102060.97;10184976;29;20379;-90
2022/03/05 13:13:40;;;;;;;14.85;10.52;;;;;;;12.24;61.49;102040.84;10198940;29;20023;-88
2022/03/05 13:18:40;;;;;;;15.05;10.23;;;;;;;11.93;59.79;102046.63;10185181;29;20027;-89
2022/03/05 13:23:41;;;;;;;14.55;9.43;;;;;;;12.34;58.65;102086.34;10193429;29;20042;-89
2022/03/05 13:28:41;;;;;;;18.77;11.02;;;;;;;12.68;59.25;102060.72;10199971;29;20114;-88
2022/03/05 13:33:50;;;;;;;17.75;11.27;;;;;;;12.96;57.50;102124.63;10184902;29;20436;-89
2022/03/05 13:39:06;;;;;;;16.30;10.70;;;;;;;12.71;59.68;102134.84;10184030;29;20101;-89
2022/03/05 13:44:17;;;;;;;19.90;10.87;;;;;;;12.54;57.45;102028.88;10203523;29;20496;-88
2022/03/05 13:49:19;;;;;;;16.50;10.88;;;;;;;12.67;57.81;102086.66;10184131;29;20035;-88
2022/03/05 13:54:40;;;;;;;17.38;11.75;;;;;;;12.98;57.40;102162.03;10205631;29;20023;-89
2022/03/05 13:59:45;;;;;;;17.17;10.68;;;;;;;11.80;58.38;102078.84;10201318;28;20319;-89
2022/03/05 14:05:02;;;;;;;15.98;10.18;;;;;;;11.82;58.04;102125.50;10195412;29;20036;-89
2022/03/05 14:10:02;;;;;;;;;;;;;;;12.48;58.96;102163.25;10188709;29;20036;-91
2022/03/05 14:15:12;;;;;;;14.23;9.93;;;;;;;13.19;57.67;102168.91;10203617;29;19911;-89
2022/03/05 14:20:20;;;;;;;17.33;11.13;;;;;;;12.98;56.43;102089.31;10241666;29;20039;-89
2022/03/05 14:25:29;;;;;;;17.20;10.38;;;;;;;13.63;55.49;102130.63;10194981;29;20487;-90
2022/03/05 14:30:31;;;;;;;17.35;10.65;;;;;;;13.09;55.28;102096.78;10210737;29;20050;-88
2022/03/05 14:35:31;;;;;;;14.20;9.40;;;;;;;11.93;56.74;102044.72;10210447;29;20031;-88
2022/03/05 14:40:34;;;;;;;15.52;9.50;;;;;;;11.54;57.51;101991.78;10182146;29;20023;-89
2022/03/05 14:45:36;;;;;;;18.42;10.32;;;;;;;12.68;57.70;102096.63;10205319;29;20032;-89
2022/03/05 14:50:36;;;;;;;18.40;11.20;;;;;;;12.54;54.88;102005.94;10207556;28;20031;-88
2022/03/05 14:55:37;;;;;;;14.95;9.57;;;;;;;12.56;56.27;102068.16;10169444;29;20081;-88
2022/03/05 15:00:38;;;;;;;14.98;8.98;;;;;;;11.89;55.27;101947.75;10198286;29;20023;-88
2022/03/05 15:05:40;;;;;;;14.45;10.55;;;;;;;12.81;55.39;102067.09;10198589;29;20019;-89
2022/03/05 15:10:40;;;;;;;13.13;8.82;;;;;;;12.05;55.23;102039.22;10176532;29;20420;-89
2022/03/05 15:15:43;;;;;;;13.93;8.98;;;;;;;11.85;56.20;102065.19;10171135;29;20059;-89
2022/03/05 15:20:43;;;;;;;17.65;9.45;;;;;;;11.42;58.30;102129.59;10201246;29;20030;-88
2022/03/05 15:25:44;;;;;;;12.93;8.82;;;;;;;10.52;58.62;102101.63;10205039;29;20062;-89
2022/03/05 15:30:46;;;;;;;13.25;8.65;;;;;;;9.93;59.65;102079.75;10186570;29;20044;-87
2022/03/05 15:35:46;;;;;;;17.17;9.50;;;;;;;9.67;60.13;102064.22;10185623;29;20043;-87
2022/03/05 15:40:47;;;;;;;15.98;9.82;;;;;;;9.14;62.14;102061.72;10178544;29;20395;-87
2022/03/05 15:45:47;;;;;;;16.42;9.60;;;;;;;9.47;62.10;102135.81;10203727;29;20035;-88
2022/03/05 15:50:48;;;;;;;14.57;8.93;;;;;;;8.65;62.26;102070.22;10191884;29;20554;-88
2022/03/05 15:55:48;;;;;;;13.38;8.73;;;;;;;8.28;63.29;102085.41;10197051;29;20015;-89
2022/03/05 16:00:49;;;;;;;17.02;9.55;;;;;;;7.79;65.44;102109.34;10220027;29;20445;-87
2022/03/05 16:05:51;;;;;;;18.30;10.23;;;;;;;6.93;66.65;102065.94;10244942;28;20070;-86
2022/03/05 16:10:51;;;;;;;18.05;9.70;;;;;;;6.06;68.79;102035.16;10239370;28;20031;-89
2022/03/05 16:15:52;;;;;;;19.30;9.43;;;;;;;6.22;69.84;102132.50;10218391;28;20028;-88
2022/03/05 16:20:53;;;;;;;18.48;10.30;;;;;;;6.29;72.17;102211.03;10204711;28;20023;-88
2022/03/05 16:25:53;;;;;;;13.43;8.15;;;;;;;5.08;73.38;102069.25;10233572;28;20142;-87
2022/03/05 16:30:54;;;;;;;17.25;8.27;;;;;;;5.69;75.68;102188.38;10226193;28;20023;-87
2022/03/05 16:35:54;;;;;;;15.82;8.00;;;;;;;5.39;76.46;102182.91;10222234;28;20030;-88
2022/03/05 16:40:55;;;;;;;16.60;8.60;;;;;;;5.05;77.58;102174.22;10229625;28;20391;-87
2022/03/05 16:45:56;;;;;;;14.88;8.30;;;;;;;4.34;80.51;102097.31;10246311;28;20039;-87
2022/03/05 16:50:57;;;;;;;15.10;8.20;;;;;;;4.38;82.09;102127.75;10203082;28;20031;-87
2022/03/05 16:55:57;;;;;;;14.20;8.20;;;;;;;4.13;82.99;102140.72;10235635;28;20049;-87
2022/03/05 17:00:58;;;;;;;13.05;7.28;;;;;;;4.65;83.93;102260.00;10240801;28;20061;-87
2022/03/05 17:06:00;;;;;;;15.32;7.80;;;;;;;3.98;84.75;102197.88;10193080;28;20077;-88
2022/03/05 17:11:01;;;;;;;12.48;8.40;;;;;;;3.58;86.64;102170.66;10209113;28;20110;-88
2022/03/05 17:16:01;;;;;;;15.50;8.60;;;;;;;3.96;87.81;102260.72;10190742;29;20118;-87
2022/03/05 17:21:05;;;;;;;13.57;7.53;;;;;;;3.76;90.35;102279.38;10222087;29;20023;-87
2022/03/05 17:26:06;;;;;;;15.20;8.50;;;;;;;3.06;93.67;102230.13;10223233;29;20027;-87
2022/03/05 17:31:06;;;;;;;12.48;7.15;;;;;;;2.42;95.04;102146.53;10206706;29;20035;-87
2022/03/05 17:36:07;;;;;;;14.93;7.50;;;;;;;2.61;97.25;102219.59;10221428;28;20137;-87
2022/03/05 17:41:08;;;;;;;13.50;7.38;;;;;;;2.60;97.96;102247.81;10205870;29;20566;-87
2022/03/05 17:46:09;;;;;;;18.45;9.73;;;;;;;2.77;98.99;102272.28;10189750;29;20083;-87
2022/03/05 17:51:10;;;;;;;13.63;6.93;;;;;;;2.42;99.12;102244.38;10221603;29;20035;-87
2022/03/05 17:56:10;;;;;;;13.57;7.07;;;;;;;2.19;100.00;102245.00;10205126;29;20031;-87
2022/03/05 18:01:11;;;;;;;12.63;6.90;;;;;;;1.86;100.00;102216.00;10189482;29;20540;-88
2022/03/05 18:06:11;;;;;;;11.75;7.07;;;;;;;1.98;100.00;102255.44;10205678;29;20118;-87
2022/03/05 18:11:13;;;;;;;11.00;7.07;;;;;;;1.71;100.00;102229.38;10205501;29;20031;-88
2022/03/05 18:16:13;;;;;;;15.50;8.15;;;;;;;1.64;100.00;102239.19;10204770;29;20059;-88
2022/03/05 18:21:14;;;;;;;12.38;7.15;;;;;;;1.74;100.00;102296.94;10183220;28;20069;-89
2022/03/05 18:26:15;;;;;;;15.57;6.90;;;;;;;1.46;100.00;102252.81;10189583;29;20026;-87
2022/03/05 18:31:15;;;;;;;12.85;6.88;;;;;;;1.71;100.00;102316.25;10193971;29;20387;-87
2022/03/05 18:36:16;;;;;;;12.43;6.72;;;;;;;1.08;100.00;102244.09;10175246;29;20038;-87
2022/03/05 18:41:16;;;;;;;13.88;7.50;;;;;;;1.01;100.00;102257.41;10193303;29;20044;-88
2022/03/05 18:46:17;;;;;;;14.23;7.25;;;;;;;1.25;100.00;102305.59;10192206;28;20582;-88
2022/03/05 18:51:18;;;;;;;15.52;8.35;;;;;;;0.70;100.00;102238.84;10210384;29;20375;-89
2022/03/05 18:56:18;;;;;;;14.73;8.35;;;;;;;0.95;100.00;102293.28;10202375;29;20110;-87
2022/03/05 19:01:19;;;;;;;13.20;7.10;;;;;;;0.59;100.00;102239.94;10206157;28;20440;-89
2022/03/05 19:06:19;;;;;;;14.82;8.10;;;;;;;0.82;100.00;102293.69;10200186;29;20119;-88
2022/03/05 19:11:20;;;;;;;12.45;6.72;;;;;;;0.99;100.00;102349.78;10211904;29;20475;-88
2022/03/05 19:16:21;;;;;;;13.52;7.82;;;;;;;0.48;100.00;102266.44;10201244;29;20023;-88
2022/03/05 19:21:23;;;;;;;18.77;8.38;;;;;;;0.74;100.00;102329.69;10185163;28;20030;-87
2022/03/05 19:26:23;;;;;;;19.52;9.15;;;;;;;0.19;100.00;102243.94;10191882;29;20033;-87
2022/03/05 19:31:24;;;;;;;15.90;8.70;;;;;;;-0.56;100.00;102145.75;10200103;29;20023;-88
2022/03/05 19:36:24;;;;;;;13.48;7.55;;;;;;;0.69;100.00;102371.84;10197031;29;20048;-88
2022/03/05 19:41:25;;;;;;;12.27;6.78;;;;;;;0.01;100.00;102285.53;10170515;29;20056;-87
2022/03/05 19:46:26;;;;;;;13.07;7.22;;;;;;;0.11;100.00;102295.31;10170083;29;20058;-87
2022/03/05 19:51:26;;;;;;;12.98;7.18;;;;;;;0.13;100.00;102322.25;10195935;29;20028;-88
2022/03/05 19:56:27;;;;;;;18.63;9.40;;;;;;;-0.81;100.00;102190.56;10223157;29;20487;-86
2022/03/05 20:01:29;;;;;;;23.77;11.07;;;;;;;-0.17;100.00;102326.91;10228504;28;20036;-87
2022/03/05 20:06:31;;;;;;;17.90;8.98;;;;;;;0.19;100.00;102392.06;10210767;29;20023;-88
2022/03/05 20:11:31;;;;;;;12.43;7.22;;;;;;;-0.39;100.00;102313.72;10225141;29;20102;-87
2022/03/05 20:16:32;;;;;;;14.10;8.05;;;;;;;-0.36;100.00;102351.34;10208578;29;20551;-88
2022/03/05 20:21:32;;;;;;;17.85;8.43;;;;;;;-0.93;100.00;102245.81;10208849;29;20023;-88
2022/03/05 20:26:35;;;;;;;17.73;9.18;;;;;;;-0.06;100.00;102424.22;10208911;29;20471;-88
2022/03/05 20:31:40;;;;;;;15.70;8.13;;;;;;;-1.06;100.00;102262.34;10193491;29;20379;-86
2022/03/05 20:36:42;;;;;;;14.75;8.40;;;;;;;-1.04;100.00;102293.63;10208866;29;20027;-87
2022/03/05 20:41:44;;;;;;;13.30;8.13;;;;;;;-0.43;100.00;102406.03;10192279;29;20138;-86
2022/03/05 20:46:45;;;;;;;20.58;10.35;;;;;;;-0.69;100.00;102367.88;10208131;29;20122;-87
2022/03/05 20:51:45;;;;;;;17.08;9.07;;;;;;;-1.10;100.00;102309.56;10207663;29;20487;-88
2022/03/05 20:56:46;;;;;;;17.05;9.05;;;;;;;-0.42;100.00;102417.69;10193753;28;20023;-87
2022/03/05 21:01:47;;;;;;;16.45;9.43;;;;;;;-0.03;100.00;102509.69;10243305;28;20042;-87
2022/03/05 21:06:48;;;;;;;19.17;10.13;;;;;;;-0.54;100.00;102421.56;10224321;28;20054;-88
2022/03/05 21:11:48;;;;;;;14.45;9.90;;;;;;;-1.10;100.00;102342.84;10205579;28;20058;-87
2022/03/05 21:16:49;;;;;;;20.05;10.32;;;;;;;-0.65;100.00;102428.81;10215156;28;20099;-87
2022/03/05 21:21:49;;;;;;;18.33;10.77;;;;;;;-1.06;100.00;102362.34;10204461;28;20089;-87
2022/03/05 21:26:50;;;;;;;17.55;10.98;;;;;;;-1.42;100.00;102316.94;10171928;28;20043;-87
2022/03/05 21:31:50;;;;;;;19.15;10.57;;;;;;;-1.02;100.00;102388.09;10201275;28;20155;-88
2022/03/05 21:36:51;;;;;;;18.17;10.50;;;;;;;-0.33;100.00;102530.53;10210963;28;20034;-87
2022/03/05 21:41:51;;;;;;;15.77;10.50;;;;;;;-1.31;100.00;102371.84;10171796;29;20035;-87
2022/03/05 21:46:52;;;;;;;20.10;11.40;;;;;;;-1.18;100.00;102421.06;10200689;28;20065;-87
2022/03/05 21:51:53;;;;;;;17.15;10.68;;;;;;;-0.77;100.00;102483.19;10202666;28;20032;-87
2022/03/05 21:56:53;;;;;;;17.83;10.73;;;;;;;-0.67;100.00;102514.66;10191654;28;20529;-87
2022/03/05 22:01:54;;;;;;;19.55;12.88;;;;;;;-1.24;100.00;102427.91;10189414;29;20114;-87
2022/03/05 22:06:54;;;;;;;19.55;12.63;;;;;;;-1.67;100.00;102376.88;10220870;29;20068;-88
2022/03/05 22:11:55;;;;;;;19.85;13.15;;;;;;;-1.53;100.00;102405.34;10220600;29;20066;-87
2022/03/05 22:16:55;;;;;;;18.98;11.57;;;;;;;-1.57;100.00;102420.97;10237182;29;20028;-87
2022/03/05 22:21:56;;;;;;;21.35;12.00;;;;;;;-1.09;100.00;102492.38;10223554;28;20471;-88
2022/03/05 22:26:57;;;;;;;17.85;11.18;;;;;;;-1.42;100.00;102433.09;10228784;29;20039;-87
2022/03/05 22:31:57;;;;;;;22.90;11.98;;;;;;;-1.55;100.00;102440.59;10228009;29;20069;-87
2022/03/05 22:36:58;;;;;;;18.65;11.63;;;;;;;-1.60;100.00;102432.03;10208092;29;20027;-87
2022/03/05 22:41:58;;;;;;;22.83;11.98;;;;;;;-1.67;100.00;102430.88;10212234;28;20047;-87